This is the latest recevied weather packets stored in our database for station/object BYNCTR-WX. If no packets are shown the sender has not sent any weather packets the latest 10 day(s).
| Time | Temp. | Humidity | Pressure | Rain* | Wind** | Luminosity | Snow |
|---|---|---|---|---|---|---|---|
| 1788143470 | 71° F | 78% | 741 mmHg | 0 in | - | - | - |
| 1788142568 | 70° F | 78% | 740.9 mmHg | 0 in | - | - | - |
| 1788141978 | 70° F | 78% | 740.9 mmHg | 0 in | - | - | - |
| 1788140768 | 71° F | 85% | 740.5 mmHg | 0 in | - | - | - |
| 1788139871 | 71° F | 85% | 740.5 mmHg | 0 in | - | - | - |
| 1788138064 | 71° F | 85% | 740.5 mmHg | 0 in | - | - | - |
| 1788137168 | 72° F | 80% | 740.8 mmHg | 0 in | - | - | - |
| 1788136267 | 73° F | 78% | 740.8 mmHg | 0 in | - | - | - |
| 1788135366 | 73° F | 78% | 740.8 mmHg | 0 in | - | - | - |
| 1788134477 | 74° F | 78% | 740.8 mmHg | 0 in | - | - | - |
| 1788132671 | 75° F | 70% | 740.9 mmHg | 0 in | - | - | - |
| 1788131767 | 76° F | 70% | 740.9 mmHg | 0 in | - | - | - |
| 1788130870 | 76° F | 70% | 740.9 mmHg | 0 in | - | - | - |
| 1788129970 | 77° F | 64% | 741.2 mmHg | 0 in | - | - | - |
| 1788129071 | 77° F | 66% | 741.4 mmHg | 0 in | - | - | - |
| 1788128170 | 76° F | 66% | 741.4 mmHg | 0 in | - | - | - |
| 1788127276 | 77° F | 66% | 741.4 mmHg | 0 in | - | - | - |
| 1788126370 | 78° F | 62% | 741.3 mmHg | 0 in | - | - | - |
| 1788125471 | 80° F | 54% | 741.4 mmHg | 0 in | - | - | - |
| 1788124569 | 81° F | 54% | 741.5 mmHg | 0 in | - | - | - |
| 1788123667 | 82° F | 54% | 741.5 mmHg | 0 in | - | - | - |
| 1788122769 | 82° F | 66% | 741.5 mmHg | 0 in | - | - | - |
| 1788121869 | 82° F | 72% | 741.1 mmHg | 0 in | - | - | - |
| 1788120969 | 82° F | 72% | 741.1 mmHg | 0 in | - | - | - |
| 1788120071 | 81° F | 69% | 741.1 mmHg | 0 in | - | - | - |
* Rain latest hour (hover to see other rain measurements)
** Current wind speed in m/s (hover to see current wind gust speed)